Historique des mesures à Cassis (13260), France
Quotidien Résumé Janvier 19, 2017 Unités:  US    Métrique   Métrique/US
« Précédent (Jour)
Suivant (Jour) »
Quotidien Hebdomadaire Mensuel Annuel Période au choix
  Maximum: Minimum: Moyenne:
Température: 32 °F 41.4 °F 45.9 °F
Point de rosée: 32 °F 19.2 °F 27.5 °F
Humidité: Humidity % 39 % 45 %
Vitesse du vent: WindSpeedKMH mph 0.0 mph 0 mph
Rafales: WindSpeedGustKMH mph - -
Vent:- - North
Pression: 0 in 30.1 in -
Précipitations: 0 in    
Historical Graphs
 
 
Mesures pour : Janvier 19, 2017
Heure Temperature Point de rosée Pression Vent Vitesse du vent Rafales Humidité Pluie (par heure) Conditions
32 °F 32 °F 0 in Calm     Humidity % 0 in SoftwareType W/m2
00:11 42.6 °F 19.2 °F 30.1 in Calm   5.5 mph 39 % 0 in open2300-1.11 W/m2
01:10 41.9 °F 19.2 °F 30.1 in Calm     40 % 0 in open2300-1.11 W/m2
02:11 41.9 °F 20.8 °F 30.1 in Calm     43 % 0 in open2300-1.11 W/m2
03:11 41.7 °F 22.3 °F 30.1 in Calm     46 % 0 in open2300-1.11 W/m2
04:10 41.5 °F 23.2 °F 30.1 in Calm     48 % 0 in open2300-1.11 W/m2
05:11 41.4 °F 23 °F 30.1 in Calm     48 % 0 in open2300-1.11 W/m2
06:10 41.5 °F 24.3 °F 30.1 in Calm     50 % 0 in open2300-1.11 W/m2
07:11 42.1 °F 24.3 °F 30.1 in Calm     49 % 0 in open2300-1.11 W/m2
08:10 42.4 °F 24.6 °F 30.2 in Calm     49 % 0 in open2300-1.11 W/m2
09:11 43.5 °F 25.5 °F 30.2 in Calm     49 % 0 in open2300-1.11 W/m2
10:10 46.6 °F 27.3 °F 30.2 in Calm     47 % 0 in open2300-1.11 W/m2
11:11 49.3 °F 29.1 °F 30.2 in Calm     46 % 0 in open2300-1.11 W/m2
12:10 51.4 °F 31.3 °F 30.2 in Calm     46 % 0 in open2300-1.11 W/m2
13:11 52 °F 31.6 °F 30.2 in Calm   8.7 mph 46 % 0 in open2300-1.11 W/m2
14:10 52.3 °F 32 °F 30.2 in Calm     46 % 0 in open2300-1.11 W/m2
15:11 52.5 °F 31.6 °F 30.2 in Calm     45 % 0 in open2300-1.11 W/m2
16:10 52.2 °F 31.8 °F 30.2 in Calm   1.8 mph 46 % 0 in open2300-1.11 W/m2
17:11 50.2 °F 31.3 °F 30.2 in Calm     48 % 0 in open2300-1.11 W/m2
18:10 48.6 °F 31.3 °F 30.2 in Calm     51 % 0 in open2300-1.11 W/m2
19:11 48.2 °F 30.9 °F 30.2 in Calm     51 % 0 in open2300-1.11 W/m2
20:10 48.2 °F 30.9 °F 30.2 in Calm     51 % 0 in open2300-1.11 W/m2
21:11 48.7 °F 30.9 °F 30.2 in Calm     50 % 0 in open2300-1.11 W/m2
23:11 48.9 °F 31.1 °F 30.2 in Calm   4.0 mph 50 % 0 in open2300-1.11 W/m2
Observations météo à CASSIS
WU-History script by Weather Underground - 1 mb